Time;durP1;ratioP1;P1;durP2;ratioP2;P2;SDS_P1;SDS_P2;PMS_P1;PMS_P2;Temp;Humidity;BMP_temperature;BMP_pressure;BME280_temperature;BME280_humidity;BME280_pressure;Samples;Min_cycle;Max_cycle;Signal;HPM_P1;HPM_P2
2021/08/20 00:00:59;;;;;;;7.53;4.33;;;;;;;;;;4918852;29;20418;-80
2021/08/20 00:03:25;;;;;;;3.73;3.43;;;;;;;;;;4918428;29;20414;-79
2021/08/20 00:05:51;;;;;;;4.10;3.70;;;;;;;;;;4918517;29;20445;-79
2021/08/20 00:08:17;;;;;;;4.10;3.70;;;;;;;;;;4918476;29;20410;-79
2021/08/20 00:10:43;;;;;;;4.80;4.03;;;;;;;;;;4901655;29;20533;-80
2021/08/20 00:13:09;;;;;;;7.80;4.33;;;;;;;;;;4918000;29;20414;-80
2021/08/20 00:15:35;;;;;;;5.93;4.30;;;;;;;;;;4901353;29;20537;-80
2021/08/20 00:18:01;;;;;;;4.10;3.70;;;;;;;;;;4918310;29;20426;-80
2021/08/20 00:20:27;;;;;;;6.47;4.63;;;;;;;;;;4918224;29;20429;-80
2021/08/20 00:22:53;;;;;;;4.47;4.07;;;;;;;;;;4917989;29;20426;-80
2021/08/20 00:25:19;;;;;;;5.37;3.90;;;;;;;;;;4918117;29;20889;-80
2021/08/20 00:27:45;;;;;;;7.93;4.63;;;;;;;;;;4918263;29;20505;-79
2021/08/20 00:30:11;;;;;;;4.50;4.10;;;;;;;;;;4917983;29;20833;-81
2021/08/20 00:32:38;;;;;;;7.60;4.80;;;;;;;;;;4901154;29;20422;-80
2021/08/20 00:35:04;;;;;;;6.33;3.70;;;;;;;;;;4917751;29;20453;-80
2021/08/20 00:37:31;;;;;;;5.30;4.23;;;;;;;;;;4918060;29;20418;-79
2021/08/20 00:39:57;;;;;;;4.03;3.60;;;;;;;;;;4917978;29;20462;-80
2021/08/20 00:42:23;;;;;;;6.00;3.70;;;;;;;;;;4917846;29;20414;-80
2021/08/20 00:44:50;;;;;;;5.70;3.90;;;;;;;;;;4917528;29;20442;-81
2021/08/20 00:47:16;;;;;;;4.40;4.00;;;;;;;;;;4901069;29;20422;-80
2021/08/20 00:49:42;;;;;;;4.30;3.63;;;;;;;;;;4900789;29;20423;-79
2021/08/20 00:52:08;;;;;;;4.10;3.70;;;;;;;;;;4917761;29;20419;-80
2021/08/20 00:54:35;;;;;;;4.93;4.43;;;;;;;;;;4917306;29;20500;-80
2021/08/20 00:57:01;;;;;;;7.30;4.50;;;;;;;;;;4917034;29;20419;-80
2021/08/20 00:59:28;;;;;;;5.30;4.20;;;;;;;;;;4917906;29;20438;-79
2021/08/20 01:01:54;;;;;;;5.10;3.73;;;;;;;;;;4917515;29;20477;-80
2021/08/20 01:04:20;;;;;;;5.70;4.87;;;;;;;;;;4917542;29;20505;-79
2021/08/20 01:06:46;;;;;;;7.63;5.10;;;;;;;;;;4917453;29;20441;-80
2021/08/20 01:09:12;;;;;;;6.20;4.77;;;;;;;;;;4900811;29;20441;-79
2021/08/20 01:11:38;;;;;;;5.07;4.57;;;;;;;;;;4917386;29;20466;-80
2021/08/20 01:14:04;;;;;;;9.07;4.83;;;;;;;;;;4917215;29;20406;-80
2021/08/20 01:16:31;;;;;;;5.13;4.57;;;;;;;;;;4917414;29;20437;-79
2021/08/20 01:18:57;;;;;;;5.63;5.07;;;;;;;;;;4917477;29;20422;-81
2021/08/20 01:21:24;;;;;;;5.87;5.00;;;;;;;;;;4917405;29;20479;-79
2021/08/20 01:23:57;;;;;;;8.30;4.90;;;;;;;;;;4900439;29;20430;-79
2021/08/20 01:26:24;;;;;;;5.00;4.50;;;;;;;;;;4917191;29;20434;-79
2021/08/20 01:28:50;;;;;;;7.33;5.43;;;;;;;;;;4900288;29;20517;-79
2021/08/20 01:31:16;;;;;;;8.63;4.90;;;;;;;;;;4917189;29;20897;-80
2021/08/20 01:33:43;;;;;;;5.90;5.30;;;;;;;;;;4917215;29;20391;-80
2021/08/20 01:36:09;;;;;;;6.90;5.07;;;;;;;;;;4917182;29;20831;-80
2021/08/20 01:38:52;;;;;;;4.80;4.33;;;;;;;;;;4917186;29;20426;-80
2021/08/20 01:41:18;;;;;;;6.73;5.40;;;;;;;;;;4917171;29;20477;-80
2021/08/20 01:43:44;;;;;;;7.90;5.30;;;;;;;;;;4899933;29;20959;-80
2021/08/20 01:46:10;;;;;;;4.60;4.20;;;;;;;;;;4916980;29;20438;-79
2021/08/20 01:48:43;;;;;;;6.20;5.20;;;;;;;;;;4917033;29;20514;-80
2021/08/20 01:51:09;;;;;;;7.50;5.77;;;;;;;;;;4916779;29;20429;-80
2021/08/20 01:53:35;;;;;;;6.83;5.00;;;;;;;;;;4916819;29;20482;-80
2021/08/20 01:56:00;;;;;;;7.20;4.93;;;;;;;;;;4900170;29;20438;-80
2021/08/20 01:58:26;;;;;;;6.57;5.50;;;;;;;;;;4916825;29;20751;-80
2021/08/20 02:00:52;;;;;;;11.43;7.53;;;;;;;;;;4900201;29;20533;-80
2021/08/20 02:03:18;;;;;;;7.13;6.00;;;;;;;;;;4916599;29;20423;-80
2021/08/20 02:05:44;;;;;;;9.80;7.20;;;;;;;;;;4916951;29;20449;-80
2021/08/20 02:08:10;;;;;;;9.10;6.60;;;;;;;;;;4919924;29;20437;-80
2021/08/20 02:10:36;;;;;;;7.07;5.50;;;;;;;;;;4920675;29;20473;-80
2021/08/20 02:13:02;;;;;;;7.67;5.87;;;;;;;;;;4920234;29;20505;-79
2021/08/20 02:15:28;;;;;;;8.20;6.30;;;;;;;;;;4921333;29;21021;-80
2021/08/20 02:17:54;;;;;;;10.67;6.60;;;;;;;;;;4920532;29;20514;-78
2021/08/20 02:20:20;;;;;;;6.57;5.97;;;;;;;;;;4920400;29;20445;-78
2021/08/20 02:22:46;;;;;;;8.73;6.20;;;;;;;;;;4920170;29;20469;-79
2021/08/20 02:25:12;;;;;;;7.27;5.60;;;;;;;;;;4920374;29;20477;-81
2021/08/20 02:27:38;;;;;;;9.77;6.30;;;;;;;;;;4920395;29;20493;-79
2021/08/20 02:30:05;;;;;;;7.77;6.17;;;;;;;;;;4920369;29;20869;-79
2021/08/20 02:32:31;;;;;;;9.33;5.97;;;;;;;;;;4920301;29;20421;-79
2021/08/20 02:34:57;;;;;;;6.93;6.07;;;;;;;;;;4919787;29;20516;-79
2021/08/20 02:37:23;;;;;;;7.70;6.23;;;;;;;;;;4920129;29;20421;-79
2021/08/20 02:39:49;;;;;;;7.20;6.47;;;;;;;;;;4920328;29;20477;-80
2021/08/20 02:42:15;;;;;;;10.33;6.67;;;;;;;;;;4920211;29;20429;-79
2021/08/20 02:44:41;;;;;;;8.77;6.70;;;;;;;;;;4903036;29;20473;-78
2021/08/20 02:47:07;;;;;;;10.70;5.87;;;;;;;;;;4919976;29;20422;-79
2021/08/20 02:49:33;;;;;;;7.57;5.97;;;;;;;;;;4902944;29;20434;-79
2021/08/20 02:51:59;;;;;;;9.40;6.70;;;;;;;;;;4920081;29;20454;-80
2021/08/20 02:54:25;;;;;;;6.43;5.83;;;;;;;;;;4919549;29;20414;-79
2021/08/20 02:56:51;;;;;;;7.07;6.10;;;;;;;;;;4919961;29;20902;-79
2021/08/20 02:59:17;;;;;;;7.70;6.73;;;;;;;;;;4919895;29;20825;-79
2021/08/20 03:01:48;;;;;;;7.10;5.87;;;;;;;;;;4919778;29;20423;-78
2021/08/20 03:04:14;;;;;;;6.73;5.37;;;;;;;;;;4919563;29;20418;-78
2021/08/20 03:06:40;;;;;;;6.63;5.90;;;;;;;;;;4919789;29;20442;-79
2021/08/20 03:09:06;;;;;;;10.70;6.63;;;;;;;;;;4919683;29;20433;-80
2021/08/20 03:11:32;;;;;;;8.37;6.90;;;;;;;;;;4919427;29;20474;-80
2021/08/20 03:13:58;;;;;;;7.23;6.53;;;;;;;;;;4919362;29;20883;-79
2021/08/20 03:16:24;;;;;;;8.60;7.03;;;;;;;;;;4902518;29;20458;-80
2021/08/20 03:18:50;;;;;;;8.17;6.33;;;;;;;;;;4918958;29;20501;-79
2021/08/20 03:21:16;;;;;;;9.93;6.33;;;;;;;;;;4919452;29;20922;-79
2021/08/20 03:23:42;;;;;;;9.37;6.40;;;;;;;;;;4919113;29;20429;-80
2021/08/20 03:26:08;;;;;;;8.43;6.40;;;;;;;;;;4919191;29;20802;-81
2021/08/20 03:28:34;;;;;;;10.23;6.50;;;;;;;;;;4919529;29;20426;-80
2021/08/20 03:31:00;;;;;;;11.43;5.70;;;;;;;;;;4919449;29;20493;-80
2021/08/20 03:33:26;;;;;;;7.20;5.83;;;;;;;;;;4919391;29;20411;-80
2021/08/20 03:35:52;;;;;;;10.00;6.40;;;;;;;;;;4920209;29;20452;-79
2021/08/20 03:38:18;;;;;;;8.07;6.43;;;;;;;;;;4923573;29;20449;-79
2021/08/20 03:40:45;;;;;;;9.00;7.47;;;;;;;;;;4919159;29;20442;-78
2021/08/20 03:43:11;;;;;;;9.83;7.00;;;;;;;;;;4918730;29;20759;-79
2021/08/20 03:45:37;;;;;;;8.93;7.73;;;;;;;;;;4918986;29;20459;-80
2021/08/20 03:48:03;;;;;;;8.80;7.03;;;;;;;;;;4919250;29;20423;-79
2021/08/20 03:50:29;;;;;;;8.23;6.90;;;;;;;;;;4918873;29;20829;-80
2021/08/20 03:52:55;;;;;;;8.87;6.70;;;;;;;;;;4918776;29;20414;-80
2021/08/20 03:55:21;;;;;;;13.20;7.03;;;;;;;;;;4918801;29;20441;-78
2021/08/20 03:57:49;;;;;;;7.43;6.30;;;;;;;;;;4918633;29;20465;-79
2021/08/20 04:00:16;;;;;;;7.00;6.30;;;;;;;;;;4901725;29;20430;-80
2021/08/20 04:02:42;;;;;;;11.10;7.23;;;;;;;;;;4918829;29;20419;-79
2021/08/20 04:05:08;;;;;;;9.73;6.47;;;;;;;;;;4918389;29;20453;-81
2021/08/20 04:07:34;;;;;;;7.40;6.10;;;;;;;;;;4918766;29;20425;-80
2021/08/20 04:10:00;;;;;;;7.40;6.60;;;;;;;;;;4901337;29;20823;-79
2021/08/20 04:12:26;;;;;;;9.90;5.30;;;;;;;;;;4918556;29;20826;-79
2021/08/20 04:14:52;;;;;;;9.03;6.10;;;;;;;;;;4918116;29;20434;-79
2021/08/20 04:17:18;;;;;;;16.27;6.87;;;;;;;;;;4918508;29;20415;-79
2021/08/20 04:19:44;;;;;;;10.90;6.20;;;;;;;;;;4918553;29;20422;-80
2021/08/20 04:22:10;;;;;;;9.57;6.90;;;;;;;;;;4918208;29;20422;-80
2021/08/20 04:24:36;;;;;;;12.23;6.83;;;;;;;;;;4917884;29;20469;-79
2021/08/20 04:27:02;;;;;;;10.67;5.73;;;;;;;;;;4918174;29;20414;-79
2021/08/20 04:29:28;;;;;;;8.83;6.80;;;;;;;;;;4918158;29;20406;-78
2021/08/20 04:31:56;;;;;;;8.23;6.60;;;;;;;;;;4917292;29;20573;-80
2021/08/20 04:34:22;;;;;;;11.73;6.60;;;;;;;;;;4900721;29;20454;-79
2021/08/20 04:36:48;;;;;;;8.63;6.63;;;;;;;;;;4918175;29;20473;-80
2021/08/20 04:39:14;;;;;;;8.10;6.73;;;;;;;;;;4917974;29;20518;-80
2021/08/20 04:41:41;;;;;;;10.17;6.90;;;;;;;;;;4918086;29;20427;-79
2021/08/20 04:44:07;;;;;;;9.17;6.10;;;;;;;;;;4917575;29;20798;-81
2021/08/20 04:46:33;;;;;;;7.60;6.20;;;;;;;;;;4917756;29;20446;-79
2021/08/20 04:48:59;;;;;;;9.53;6.33;;;;;;;;;;4900791;29;20435;-80
2021/08/20 04:51:25;;;;;;;10.20;6.27;;;;;;;;;;4918699;29;20511;-80
2021/08/20 04:53:51;;;;;;;7.20;6.17;;;;;;;;;;4918152;29;20553;-79
2021/08/20 04:56:17;;;;;;;12.20;5.97;;;;;;;;;;4917576;29;20429;-79
2021/08/20 04:58:43;;;;;;;8.50;6.63;;;;;;;;;;4917549;29;20445;-79
2021/08/20 05:01:11;;;;;;;9.17;6.80;;;;;;;;;;4909001;29;20913;-80
2021/08/20 05:03:37;;;;;;;12.27;7.20;;;;;;;;;;4898586;29;20443;-81
2021/08/20 05:06:03;;;;;;;9.23;6.60;;;;;;;;;;4898903;29;20465;-80
2021/08/20 05:08:30;;;;;;;8.97;6.63;;;;;;;;;;4898588;29;20422;-80
2021/08/20 05:10:56;;;;;;;9.80;7.33;;;;;;;;;;4898583;29;20843;-80
2021/08/20 05:13:21;;;;;;;11.40;6.30;;;;;;;;;;4898237;29;20396;-80
2021/08/20 05:15:47;;;;;;;7.80;6.97;;;;;;;;;;4898435;29;20421;-80
2021/08/20 05:18:13;;;;;;;9.80;6.73;;;;;;;;;;4898547;29;20419;-80
2021/08/20 05:20:39;;;;;;;10.17;6.60;;;;;;;;;;4898337;29;20773;-80
2021/08/20 05:23:05;;;;;;;7.67;6.53;;;;;;;;;;4898186;29;20472;-81
2021/08/20 05:25:34;;;;;;;10.20;8.23;;;;;;;;;;4898280;29;20928;-80
2021/08/20 05:28:00;;;;;;;9.47;7.17;;;;;;;;;;4881620;29;20427;-80
2021/08/20 05:30:26;;;;;;;11.00;7.17;;;;;;;;;;4898096;29;20466;-80
2021/08/20 05:32:52;;;;;;;8.73;7.83;;;;;;;;;;4898101;29;20431;-79
2021/08/20 05:35:18;;;;;;;10.40;7.80;;;;;;;;;;4898079;29;20421;-80
2021/08/20 05:37:44;;;;;;;8.60;7.40;;;;;;;;;;4898285;29;20397;-80
2021/08/20 05:40:11;;;;;;;9.53;7.53;;;;;;;;;;4898267;29;20423;-80
2021/08/20 05:42:37;;;;;;;8.07;6.90;;;;;;;;;;4897689;29;20831;-79
2021/08/20 05:45:03;;;;;;;8.23;7.30;;;;;;;;;;4897951;29;20779;-79
2021/08/20 05:47:29;;;;;;;12.17;7.80;;;;;;;;;;4898344;29;20939;-80
2021/08/20 05:49:55;;;;;;;9.73;7.17;;;;;;;;;;4898180;29;20468;-79
2021/08/20 05:52:21;;;;;;;9.97;8.27;;;;;;;;;;4898146;29;20506;-80
2021/08/20 05:54:47;;;;;;;12.23;7.57;;;;;;;;;;4897784;29;20922;-80
2021/08/20 05:57:13;;;;;;;11.17;8.17;;;;;;;;;;4898271;29;20390;-80
2021/08/20 05:59:39;;;;;;;9.23;7.77;;;;;;;;;;4897872;29;20950;-80
2021/08/20 06:02:05;;;;;;;14.30;8.07;;;;;;;;;;4898106;29;20783;-81
2021/08/20 06:04:31;;;;;;;9.50;7.93;;;;;;;;;;4901118;29;20419;-77
2021/08/20 06:07:03;;;;;;;10.30;7.20;;;;;;;;;;4899839;29;20430;-78
2021/08/20 06:09:29;;;;;;;9.50;8.00;;;;;;;;;;4884983;29;20454;-77
2021/08/20 06:11:55;;;;;;;16.97;8.73;;;;;;;;;;4899730;29;20487;-78
2021/08/20 06:14:21;;;;;;;10.80;7.70;;;;;;;;;;4884023;29;20770;-77
2021/08/20 06:16:47;;;;;;;9.40;7.83;;;;;;;;;;4911513;29;20416;-77
2021/08/20 06:19:13;;;;;;;9.40;8.40;;;;;;;;;;4904500;29;20404;-77
2021/08/20 06:21:39;;;;;;;12.03;7.57;;;;;;;;;;4899756;29;20807;-82
2021/08/20 06:24:05;;;;;;;8.83;7.90;;;;;;;;;;4899455;29;20412;-79
2021/08/20 06:26:31;;;;;;;9.60;8.00;;;;;;;;;;4916581;29;20456;-83
2021/08/20 06:28:58;;;;;;;8.87;7.23;;;;;;;;;;4899566;29;20796;-81
2021/08/20 06:31:24;;;;;;;9.77;8.40;;;;;;;;;;4899705;29;20469;-81
2021/08/20 07:22:16;;;;;;;8.30;7.30;;;;;;;;;;4919430;29;20760;-81
2021/08/20 07:31:08;;;;;;;9.70;7.30;;;;;;;;;;4881488;29;20477;-82
2021/08/20 07:33:48;;;;;;;7.87;7.17;;;;;;;;;;4879340;29;20399;-80
2021/08/20 08:31:47;;;;;;;7.73;5.67;;;;;;;;;;5389431;23;20526;-81
2021/08/20 08:34:13;;;;;;;9.90;7.20;;;;;;;;;;4901010;29;20900;-82
2021/08/20 08:36:39;;;;;;;8.83;7.00;;;;;;;;;;4918091;29;20442;-82
2021/08/20 08:39:05;;;;;;;10.80;6.90;;;;;;;;;;4918313;29;20384;-82
2021/08/20 08:41:35;;;;;;;10.57;6.90;;;;;;;;;;4901259;29;20404;-81
2021/08/20 08:44:01;;;;;;;10.53;7.90;;;;;;;;;;4917804;29;20443;-82
2021/08/20 08:46:27;;;;;;;9.60;7.60;;;;;;;;;;4918015;29;20438;-82
2021/08/20 08:48:53;;;;;;;7.50;6.30;;;;;;;;;;4918272;29;20702;-81
2021/08/20 08:51:20;;;;;;;11.00;6.80;;;;;;;;;;4918244;29;20513;-81
2021/08/20 08:53:46;;;;;;;7.53;6.23;;;;;;;;;;4917595;29;20420;-81
2021/08/20 08:56:16;;;;;;;12.00;6.80;;;;;;;;;;4900914;29;20457;-81
2021/08/20 08:58:42;;;;;;;11.57;6.90;;;;;;;;;;4917968;29;20831;-82
2021/08/20 09:01:28;;;;;;;11.63;5.23;;;;;;;;;;4917778;29;20510;-82
2021/08/20 09:04:13;;;;;;;9.63;6.40;;;;;;;;;;4900368;29;20770;-82
2021/08/20 09:06:39;;;;;;;11.97;5.70;;;;;;;;;;4917848;29;20471;-82
2021/08/20 09:09:10;;;;;;;7.40;5.90;;;;;;;;;;4917657;29;20410;-81
2021/08/20 09:11:36;;;;;;;7.50;4.13;;;;;;;;;;4917477;29;20549;-81
2021/08/20 09:14:02;;;;;;;4.90;4.50;;;;;;;;;;4917392;29;20417;-82
2021/08/20 09:16:36;;;;;;;2.77;2.10;;;;;;;;;;4916897;29;20417;-81
2021/08/20 09:19:07;;;;;;;5.67;2.00;;;;;;;;;;4917716;29;20415;-81
2021/08/20 09:21:33;;;;;;;1.93;1.13;;;;;;;;;;4900542;29;20426;-82
2021/08/20 09:23:59;;;;;;;2.30;0.83;;;;;;;;;;4917092;29;20542;-81
2021/08/20 09:26:25;;;;;;;1.20;0.90;;;;;;;;;;4915962;29;20417;-81
2021/08/20 09:28:53;;;;;;;4.93;1.13;;;;;;;;;;4900776;29;20412;-83
2021/08/20 09:31:22;;;;;;;1.50;0.80;;;;;;;;;;4900543;29;20512;-82
2021/08/20 09:33:50;;;;;;;2.20;0.70;;;;;;;;;;4900057;29;20483;-81
2021/08/20 09:36:21;;;;;;;1.00;0.70;;;;;;;;;;4917071;29;20420;-81
2021/08/20 09:38:52;;;;;;;1.17;0.93;;;;;;;;;;4917170;29;20381;-81
2021/08/20 09:41:29;;;;;;;1.00;0.80;;;;;;;;;;4900687;29;20773;-81
2021/08/20 09:43:56;;;;;;;0.70;0.60;;;;;;;;;;4899945;29;20496;-82
2021/08/20 09:46:28;;;;;;;1.23;0.60;;;;;;;;;;4917124;29;20438;-81
2021/08/20 09:48:55;;;;;;;0.77;0.60;;;;;;;;;;4917214;29;20396;-82
2021/08/20 09:51:36;;;;;;;0.80;0.50;;;;;;;;;;4899876;29;20473;-81
2021/08/20 09:54:10;;;;;;;0.70;0.60;;;;;;;;;;4899809;29;20393;-80
2021/08/20 09:56:37;;;;;;;0.93;0.83;;;;;;;;;;4900180;29;20450;-82
2021/08/20 09:59:07;;;;;;;2.00;0.70;;;;;;;;;;4899988;29;20474;-81
2021/08/20 10:01:35;;;;;;;1.10;0.77;;;;;;;;;;4900411;29;20934;-82
2021/08/20 10:04:05;;;;;;;1.30;0.70;;;;;;;;;;4899715;29;20397;-82
2021/08/20 10:06:33;;;;;;;1.20;0.87;;;;;;;;;;4917271;29;20830;-81
2021/08/20 10:09:01;;;;;;;1.13;0.97;;;;;;;;;;4900829;29;20405;-81
2021/08/20 10:11:28;;;;;;;1.00;0.90;;;;;;;;;;4900070;29;20476;-81
2021/08/20 10:13:56;;;;;;;1.53;0.60;;;;;;;;;;4899519;29;20474;-80
2021/08/20 10:16:22;;;;;;;1.93;0.80;;;;;;;;;;4916727;29;20442;-81
2021/08/20 10:18:48;;;;;;;0.80;0.70;;;;;;;;;;4916847;29;20438;-79
2021/08/20 10:21:16;;;;;;;0.93;0.80;;;;;;;;;;4916913;29;20415;-81
2021/08/20 10:23:43;;;;;;;1.27;0.87;;;;;;;;;;4916584;29;20415;-81
2021/08/20 10:26:10;;;;;;;1.77;0.80;;;;;;;;;;4899743;29;20446;-81
2021/08/20 10:28:38;;;;;;;2.00;1.20;;;;;;;;;;4902099;29;20553;-81
2021/08/20 10:31:04;;;;;;;1.20;1.10;;;;;;;;;;4920079;29;20477;-82
2021/08/20 10:33:32;;;;;;;2.40;1.20;;;;;;;;;;4903232;29;20934;-82
2021/08/20 10:39:56;;;;;;;1.40;1.30;;;;;;;;;;5133754;27;20568;-80
2021/08/20 10:42:37;;;;;;;1.80;1.20;;;;;;;;;;5117258;28;20494;-81
2021/08/20 10:45:10;;;;;;;3.13;2.17;;;;;;;;;;5095739;28;20440;-81
2021/08/20 10:47:45;;;;;;;1.50;1.40;;;;;;;;;;5113379;27;20740;-81
2021/08/20 10:50:21;;;;;;;1.90;1.40;;;;;;;;;;5131720;28;20384;-81
2021/08/20 10:52:48;;;;;;;2.43;1.33;;;;;;;;;;5131496;27;20404;-81
2021/08/20 10:55:25;;;;;;;2.80;1.77;;;;;;;;;;5112840;28;20953;-80
2021/08/20 10:57:55;;;;;;;2.87;1.33;;;;;;;;;;5113022;28;20916;-81
2021/08/20 11:00:26;;;;;;;1.57;1.47;;;;;;;;;;5112969;28;20792;-80
2021/08/20 11:02:53;;;;;;;1.43;1.30;;;;;;;;;;5112555;28;20928;-81
2021/08/20 11:05:57;;;;;;;3.87;1.57;;;;;;;;;;5112765;28;20840;-82
2021/08/20 11:08:35;;;;;;;1.73;1.50;;;;;;;;;;5011092;28;20792;-81
2021/08/20 11:11:02;;;;;;;2.60;1.30;;;;;;;;;;5102218;28;20424;-82
2021/08/20 11:13:31;;;;;;;1.10;1.00;;;;;;;;;;5112887;28;20416;-80
2021/08/20 11:15:58;;;;;;;1.30;1.20;;;;;;;;;;5112592;28;20475;-83
2021/08/20 11:18:45;;;;;;;2.53;1.70;;;;;;;;;;5112654;28;20435;-80
2021/08/20 11:21:11;;;;;;;3.50;1.33;;;;;;;;;;5112453;28;20458;-83
2021/08/20 11:23:49;;;;;;;1.53;1.27;;;;;;;;;;5130679;28;20409;-82
2021/08/20 11:26:28;;;;;;;1.43;1.13;;;;;;;;;;5112570;28;20522;-82
2021/08/20 11:28:57;;;;;;;1.57;1.27;;;;;;;;;;5131125;28;20408;-83
2021/08/20 11:31:41;;;;;;;1.40;1.30;;;;;;;;;;5111553;27;20574;-81
2021/08/20 11:37:06;;;;;;;4.30;1.40;;;;;;;;;;5119452;28;20497;-82
2021/08/20 11:40:17;;;;;;;1.70;1.60;;;;;;;;;;5095093;28;20412;-82
2021/08/20 11:42:43;;;;;;;1.43;1.30;;;;;;;;;;5119481;28;20427;-82
2021/08/20 11:45:21;;;;;;;2.67;1.70;;;;;;;;;;5130183;28;20472;-83
2021/08/20 11:48:00;;;;;;;1.80;1.53;;;;;;;;;;5097997;28;20416;-83
2021/08/20 11:53:30;;;;;;;2.10;1.90;;;;;;;;;;5115979;28;20405;-78
2021/08/20 11:56:17;;;;;;;5.83;1.87;;;;;;;;;;5102760;28;20453;-74
2021/08/20 11:58:44;;;;;;;5.30;2.03;;;;;;;;;;5101799;28;20429;-77
2021/08/20 12:04:40;;;;;;;;;;;;;;;;;;;;;
2021/08/20 12:07:36;;;;;;;2.37;1.47;;;;;;;;;;5033600;28;20417;-77
2021/08/20 12:16:57;;;;;;;1.70;1.33;;;;;;;;;;5080899;22;20539;-75
2021/08/20 12:19:29;;;;;;;1.40;1.10;;;;;;;;;;5074867;28;20440;-76
2021/08/20 12:22:08;;;;;;;2.90;1.27;;;;;;;;;;5073993;28;20411;-75
2021/08/20 12:24:37;;;;;;;4.50;1.80;;;;;;;;;;5074726;28;20458;-77
2021/08/20 12:27:14;;;;;;;3.63;1.57;;;;;;;;;;5057233;28;20423;-78
2021/08/20 12:29:40;;;;;;;3.73;1.30;;;;;;;;;;5056984;28;20430;-75
2021/08/20 12:32:08;;;;;;;1.90;1.73;;;;;;;;;;5057428;28;20411;-77
2021/08/20 12:34:37;;;;;;;4.90;1.40;;;;;;;;;;5065860;28;20416;-78
2021/08/20 12:37:07;;;;;;;2.47;1.40;;;;;;;;;;5063535;28;20844;-77
2021/08/20 12:39:38;;;;;;;1.70;1.37;;;;;;;;;;5058793;28;20745;-77
2021/08/20 12:42:23;;;;;;;2.37;1.10;;;;;;;;;;5055026;28;20437;-74
2021/08/20 12:45:12;;;;;;;5.93;1.53;;;;;;;;;;5054327;28;20463;-77
2021/08/20 12:47:52;;;;;;;3.43;1.33;;;;;;;;;;5054619;28;20858;-77
2021/08/20 12:50:27;;;;;;;1.73;1.40;;;;;;;;;;5054984;28;20396;-77
2021/08/20 12:53:04;;;;;;;2.90;1.13;;;;;;;;;;5054315;28;20411;-77
2021/08/20 12:55:40;;;;;;;1.83;1.57;;;;;;;;;;5054623;28;20451;-77
2021/08/20 12:58:07;;;;;;;2.47;1.43;;;;;;;;;;5053778;28;20486;-76
2021/08/20 13:00:34;;;;;;;2.37;1.50;;;;;;;;;;5055203;28;20412;-80
2021/08/20 13:03:02;;;;;;;1.60;1.40;;;;;;;;;;5054485;28;20436;-80
2021/08/20 13:05:28;;;;;;;3.10;1.47;;;;;;;;;;5054663;28;20543;-78
2021/08/20 13:07:55;;;;;;;2.50;1.27;;;;;;;;;;5054627;28;20502;-80
2021/08/20 13:10:21;;;;;;;2.40;1.30;;;;;;;;;;5070162;28;20390;-83
2021/08/20 13:12:47;;;;;;;1.90;1.60;;;;;;;;;;5057201;28;20408;-79
2021/08/20 13:15:15;;;;;;;3.43;1.30;;;;;;;;;;5042597;28;20497;-82
2021/08/20 13:17:41;;;;;;;1.40;1.30;;;;;;;;;;5055472;28;20511;-79
2021/08/20 13:20:07;;;;;;;2.27;1.60;;;;;;;;;;5054182;28;20387;-80
2021/08/20 13:22:34;;;;;;;1.43;1.20;;;;;;;;;;5054290;28;20431;-81
2021/08/20 13:25:01;;;;;;;2.40;1.50;;;;;;;;;;5036010;28;20537;-79
2021/08/20 13:27:27;;;;;;;2.43;2.00;;;;;;;;;;5054410;28;20386;-81
2021/08/20 13:29:53;;;;;;;2.57;2.07;;;;;;;;;;5054229;28;20442;-80
2021/08/20 13:32:19;;;;;;;1.60;1.40;;;;;;;;;;5053991;28;20416;-82
2021/08/20 13:34:46;;;;;;;3.43;1.60;;;;;;;;;;5054054;28;20435;-81
2021/08/20 13:37:12;;;;;;;5.33;1.60;;;;;;;;;;5054305;28;20791;-79
2021/08/20 13:39:38;;;;;;;2.73;1.37;;;;;;;;;;5054144;28;20412;-81
2021/08/20 13:42:04;;;;;;;2.43;1.60;;;;;;;;;;5054104;28;20412;-80
2021/08/20 13:44:30;;;;;;;1.80;1.40;;;;;;;;;;5053360;28;20488;-82
2021/08/20 13:46:56;;;;;;;1.60;1.37;;;;;;;;;;5053852;28;20404;-80
2021/08/20 13:49:22;;;;;;;2.60;1.30;;;;;;;;;;5053679;28;20386;-80
2021/08/20 13:51:48;;;;;;;2.43;1.67;;;;;;;;;;5058408;28;20423;-81
2021/08/20 13:54:15;;;;;;;1.83;1.40;;;;;;;;;;5053528;28;20414;-81
2021/08/20 13:56:41;;;;;;;2.70;1.60;;;;;;;;;;5052445;28;20474;-82
2021/08/20 13:59:07;;;;;;;2.00;1.30;;;;;;;;;;5053431;28;20436;-82
2021/08/20 14:01:33;;;;;;;3.67;1.50;;;;;;;;;;5053536;28;20503;-80
2021/08/20 14:04:00;;;;;;;1.40;1.17;;;;;;;;;;5053288;28;20441;-81
2021/08/20 14:06:26;;;;;;;2.40;1.57;;;;;;;;;;5053773;28;20792;-81
2021/08/20 14:08:52;;;;;;;2.10;1.23;;;;;;;;;;5053843;28;20859;-80
2021/08/20 14:11:18;;;;;;;1.87;1.30;;;;;;;;;;5058205;28;20423;-80
2021/08/20 14:13:44;;;;;;;1.37;1.17;;;;;;;;;;5053676;28;20408;-80
2021/08/20 14:16:10;;;;;;;1.40;1.23;;;;;;;;;;5053570;28;20459;-79
2021/08/20 14:18:36;;;;;;;1.50;1.30;;;;;;;;;;5053610;28;20398;-80
2021/08/20 14:21:02;;;;;;;1.33;1.23;;;;;;;;;;5053380;28;20431;-78
2021/08/20 14:23:28;;;;;;;5.30;1.60;;;;;;;;;;5051679;28;20898;-80
2021/08/20 14:25:54;;;;;;;2.27;1.57;;;;;;;;;;5072935;28;20470;-80
2021/08/20 14:28:21;;;;;;;3.20;1.77;;;;;;;;;;5074213;28;20434;-82
2021/08/20 14:30:47;;;;;;;3.57;1.50;;;;;;;;;;5075169;28;20506;-79
2021/08/20 14:33:15;;;;;;;2.03;1.20;;;;;;;;;;5074809;28;20436;-79
2021/08/20 14:35:41;;;;;;;8.30;1.67;;;;;;;;;;5073761;28;20434;-79
2021/08/20 14:38:07;;;;;;;2.40;1.07;;;;;;;;;;5073856;28;20390;-81
2021/08/20 14:40:33;;;;;;;2.70;1.20;;;;;;;;;;5073104;28;20445;-81
2021/08/20 14:43:00;;;;;;;6.20;1.90;;;;;;;;;;5071538;28;20450;-80
2021/08/20 14:45:26;;;;;;;1.90;1.10;;;;;;;;;;5073021;28;20491;-79
2021/08/20 14:47:52;;;;;;;2.97;1.10;;;;;;;;;;5073014;28;20466;-78
2021/08/20 14:50:18;;;;;;;1.67;1.10;;;;;;;;;;5072817;28;20906;-79
2021/08/20 14:52:45;;;;;;;1.40;1.10;;;;;;;;;;5072568;28;20757;-81
2021/08/20 14:55:11;;;;;;;1.20;1.10;;;;;;;;;;5054838;28;20447;-78
2021/08/20 14:57:37;;;;;;;1.40;1.23;;;;;;;;;;5072330;28;20425;-81
2021/08/20 15:00:04;;;;;;;1.47;1.20;;;;;;;;;;5073033;28;20443;-79
2021/08/20 15:02:31;;;;;;;1.73;1.23;;;;;;;;;;5073126;28;20418;-81
2021/08/20 15:04:57;;;;;;;1.40;1.07;;;;;;;;;;5071328;28;20449;-81
2021/08/20 15:07:23;;;;;;;1.20;1.10;;;;;;;;;;5073040;28;20431;-79
2021/08/20 15:09:49;;;;;;;1.67;1.23;;;;;;;;;;5054939;28;20795;-79
2021/08/20 15:12:16;;;;;;;2.17;1.00;;;;;;;;;;5072871;28;20411;-81
2021/08/20 15:14:46;;;;;;;1.53;1.10;;;;;;;;;;5072776;28;20450;-82
2021/08/20 15:17:12;;;;;;;1.30;0.90;;;;;;;;;;5056672;28;21219;-81
2021/08/20 15:19:38;;;;;;;4.83;1.20;;;;;;;;;;5073882;28;20482;-81
2021/08/20 15:22:05;;;;;;;1.60;1.20;;;;;;;;;;5058429;28;20427;-81
2021/08/20 15:24:31;;;;;;;1.70;1.10;;;;;;;;;;5059427;28;20429;-83
2021/08/20 15:26:57;;;;;;;1.87;1.13;;;;;;;;;;5077847;28;20756;-81
2021/08/20 15:29:24;;;;;;;1.37;1.27;;;;;;;;;;5077710;28;20418;-79
2021/08/20 15:31:50;;;;;;;2.07;1.60;;;;;;;;;;5079610;28;20403;-80
2021/08/20 15:34:16;;;;;;;1.83;1.23;;;;;;;;;;5078516;28;20489;-80
2021/08/20 15:36:43;;;;;;;1.40;1.20;;;;;;;;;;5063124;28;20419;-81
2021/08/20 15:39:09;;;;;;;2.00;1.43;;;;;;;;;;5076867;28;20416;-82
2021/08/20 15:41:39;;;;;;;3.80;1.10;;;;;;;;;;5080177;28;20452;-80
2021/08/20 15:44:05;;;;;;;1.60;1.33;;;;;;;;;;5079433;28;20396;-82
2021/08/20 15:46:31;;;;;;;2.70;1.30;;;;;;;;;;5081595;28;20457;-80
2021/08/20 15:48:57;;;;;;;1.23;1.13;;;;;;;;;;5080689;28;20415;-80
2021/08/20 15:51:24;;;;;;;1.83;1.50;;;;;;;;;;5080502;28;20411;-80
2021/08/20 15:53:50;;;;;;;2.20;1.27;;;;;;;;;;5080321;28;20439;-80
2021/08/20 15:56:18;;;;;;;1.40;1.20;;;;;;;;;;5081239;28;20435;-79
2021/08/20 15:58:44;;;;;;;1.93;1.40;;;;;;;;;;5080126;28;20386;-79
2021/08/20 16:01:10;;;;;;;3.50;1.43;;;;;;;;;;5079175;28;20394;-82
2021/08/20 16:03:36;;;;;;;1.57;1.47;;;;;;;;;;5077013;28;20389;-79
2021/08/20 16:06:02;;;;;;;2.17;1.40;;;;;;;;;;5076940;28;20813;-81
2021/08/20 16:08:28;;;;;;;1.97;1.30;;;;;;;;;;5077422;28;20421;-79
2021/08/20 16:10:54;;;;;;;2.80;1.40;;;;;;;;;;5076886;28;20385;-79
2021/08/20 16:13:20;;;;;;;1.50;1.40;;;;;;;;;;5058184;28;20430;-80
2021/08/20 16:15:46;;;;;;;4.00;1.47;;;;;;;;;;5077435;28;20943;-80
2021/08/20 16:18:12;;;;;;;2.60;1.83;;;;;;;;;;5077473;28;20389;-79
2021/08/20 16:20:38;;;;;;;1.63;1.10;;;;;;;;;;5078019;28;20527;-79
2021/08/20 16:23:05;;;;;;;2.30;1.57;;;;;;;;;;5076989;28;20407;-79
2021/08/20 16:25:31;;;;;;;1.30;1.20;;;;;;;;;;5077549;28;20453;-83
2021/08/20 16:27:57;;;;;;;2.90;1.23;;;;;;;;;;5076083;28;20414;-79
2021/08/20 16:30:23;;;;;;;3.07;1.53;;;;;;;;;;5078982;28;20415;-79
2021/08/20 16:32:54;;;;;;;2.17;1.47;;;;;;;;;;5081335;28;20404;-79
2021/08/20 16:35:21;;;;;;;1.67;1.00;;;;;;;;;;5081864;28;20446;-81
2021/08/20 16:37:46;;;;;;;2.50;1.70;;;;;;;;;;5082515;28;20398;-81
2021/08/20 16:40:13;;;;;;;1.60;1.50;;;;;;;;;;5062383;28;20435;-80
2021/08/20 16:42:39;;;;;;;2.17;1.53;;;;;;;;;;5079590;28;20414;-81
2021/08/20 16:45:05;;;;;;;1.77;1.67;;;;;;;;;;5078347;28;20458;-81
2021/08/20 16:47:31;;;;;;;1.67;1.50;;;;;;;;;;5077856;28;20421;-80
2021/08/20 16:49:57;;;;;;;2.13;1.87;;;;;;;;;;5077134;28;20411;-80
2021/08/20 16:52:23;;;;;;;3.13;1.57;;;;;;;;;;5073517;28;20382;-81
2021/08/20 16:54:51;;;;;;;3.63;1.60;;;;;;;;;;5072384;28;20410;-81
2021/08/20 16:57:20;;;;;;;3.73;1.67;;;;;;;;;;5075349;28;20450;-79